Time;durP1;ratioP1;P1;durP2;ratioP2;P2;SDS_P1;SDS_P2;PMS_P1;PMS_P2;Temp;Humidity;BMP_temperature;BMP_pressure;BME280_temperature;BME280_humidity;BME280_pressure;Samples;Min_cycle;Max_cycle;Signal;HPM_P1;HPM_P2
2022/08/23 00:00:11;;;;;;;9.38;5.70;;;18.30;59.90;;;14.18;85.96;95439.06;4958220;28;20536;-44
2022/08/23 00:02:41;;;;;;;5.82;5.05;;;18.20;60.00;;;14.15;86.16;95436.97;4973361;28;20448;-43
2022/08/23 00:05:07;;;;;;;7.05;5.30;;;18.20;60.00;;;14.13;85.95;95436.47;4973671;28;20022;-42
2022/08/23 00:07:33;;;;;;;7.50;5.63;;;18.10;60.00;;;14.09;86.04;95432.78;4955307;28;20026;-43
2022/08/23 00:09:59;;;;;;;8.43;5.43;;;18.10;60.10;;;14.06;86.50;95434.16;4955950;28;20037;-47
2022/08/23 00:12:25;;;;;;;6.55;5.57;;;18.10;60.30;;;14.04;86.52;95435.50;4972863;28;20026;-43
2022/08/23 00:14:54;;;;;;;8.32;5.93;;;18.00;60.40;;;14.03;86.45;95440.06;4939594;28;20520;-48
2022/08/23 00:17:21;;;;;;;7.50;5.28;;;18.00;60.70;;;14.04;86.46;95441.69;4955505;28;20125;-43
2022/08/23 00:19:47;;;;;;;7.72;5.35;;;18.00;60.70;;;14.03;86.57;95440.06;4971866;28;20388;-43
2022/08/23 00:22:14;;;;;;;7.75;6.07;;;18.00;60.80;;;14.02;86.65;95435.81;4972697;28;20025;-43
2022/08/23 00:24:41;;;;;;;7.55;5.45;;;18.00;60.90;;;14.01;86.92;95436.13;4955601;28;20022;-44
2022/08/23 00:27:16;;;;;;;6.75;5.50;;;18.00;61.00;;;13.99;87.03;95438.28;4980017;28;20034;-44
2022/08/23 00:29:51;;;;;;;7.88;5.90;;;18.00;61.30;;;13.99;86.82;95438.28;4970428;28;20113;-45
2022/08/23 00:32:35;;;;;;;10.40;6.45;;;18.00;61.30;;;13.99;86.90;95436.41;4971574;28;20100;-45
2022/08/23 00:35:08;;;;;;;9.27;6.13;;;17.90;61.40;;;13.97;86.63;95435.09;4971323;28;20102;-42
2022/08/23 00:37:39;;;;;;;7.70;6.28;;;17.90;61.30;;;13.94;86.26;95438.34;4972358;28;20030;-44
2022/08/23 00:40:10;;;;;;;8.32;6.22;;;17.90;61.30;;;13.87;87.24;95436.81;4971933;28;20374;-44
2022/08/23 00:49:38;;;;;;;9.63;6.85;;;17.80;61.40;;;13.72;88.39;95431.66;4971739;28;20037;-50
2022/08/23 00:52:37;;;;;;;10.55;6.82;;;17.70;61.50;;;13.73;88.82;95432.47;4971272;28;20038;-44
2022/08/23 00:55:12;;;;;;;9.68;6.90;;;17.70;62.00;;;13.69;88.99;95434.13;4972479;28;20022;-44
2022/08/23 00:57:39;;;;;;;13.48;7.40;;;17.70;61.90;;;13.66;89.26;95438.16;4954922;28;20030;-43
2022/08/23 01:00:09;;;;;;;14.40;7.85;;;17.60;61.90;;;13.63;89.14;95444.91;4938817;28;20408;-43
2022/08/23 01:02:41;;;;;;;7.88;6.88;;;17.70;62.30;;;13.59;89.40;95443.06;4966330;28;20141;-43
2022/08/23 01:05:09;;;;;;;9.00;7.18;;;17.60;62.40;;;13.56;89.20;95438.31;4964940;28;20046;-43
2022/08/23 01:07:54;;;;;;;8.70;7.57;;;17.60;62.30;;;13.52;89.37;95435.41;4970827;28;20033;-45
2022/08/23 01:10:46;;;;;;;7.35;6.40;;;17.60;62.70;;;13.49;89.43;95446.69;4971952;28;20030;-43
2022/08/23 01:13:31;;;;;;;10.75;7.30;;;17.60;62.70;;;13.47;89.69;95440.81;4955134;28;20113;-45
2022/08/23 01:16:12;;;;;;;9.15;7.30;;;17.50;62.70;;;13.44;89.42;95441.38;4970487;28;20493;-43
2022/08/23 01:18:44;;;;;;;11.10;7.28;;;17.50;62.80;;;13.40;89.68;95443.81;4955210;28;20116;-43
2022/08/23 01:21:28;;;;;;;10.73;6.57;;;17.50;62.80;;;13.37;90.39;95439.03;4954505;28;20113;-46
2022/08/23 01:24:06;;;;;;;13.60;6.88;;;17.40;62.90;;;13.34;91.17;95444.97;4970632;28;20613;-43
2022/08/23 01:26:42;;;;;;;11.57;7.70;;;17.40;63.00;;;13.34;91.16;95446.84;4971257;28;20018;-43
2022/08/23 01:29:08;;;;;;;9.10;6.97;;;17.40;63.20;;;13.33;91.08;95448.72;4955358;28;20628;-42
2022/08/23 01:31:36;;;;;;;10.43;7.20;;;17.40;63.00;;;13.32;91.59;95451.72;4971291;28;20030;-43
2022/08/23 01:34:10;;;;;;;12.40;7.13;;;17.40;63.20;;;13.35;92.10;95451.09;4967879;28;20030;-42
2022/08/23 01:36:37;;;;;;;10.25;7.25;;;17.40;63.60;;;13.34;92.07;95452.19;4971019;28;20389;-42
2022/08/23 01:39:08;;;;;;;9.30;7.65;;;17.30;63.50;;;13.34;91.93;95449.53;4959874;28;20481;-43
2022/08/23 01:41:37;;;;;;;11.63;7.15;;;17.30;63.80;;;13.30;92.56;95449.31;4952187;28;20413;-44
2022/08/23 01:44:06;;;;;;;9.65;7.43;;;17.30;63.70;;;13.31;92.24;95450.88;4919605;28;20027;-42
2022/08/23 01:46:32;;;;;;;11.93;7.75;;;17.30;63.80;;;13.30;92.22;95440.47;4950475;28;20045;-43
2022/08/23 01:49:00;;;;;;;9.40;7.70;;;17.30;63.90;;;13.28;92.34;95450.66;4952038;28;20031;-42
2022/08/23 01:51:31;;;;;;;10.00;7.90;;;17.30;64.00;;;13.27;92.48;95455.22;4962554;28;20117;-44
2022/08/23 01:53:57;;;;;;;9.77;7.20;;;17.30;64.30;;;13.28;92.83;95453.34;4950866;28;20030;-44
2022/08/23 01:56:27;;;;;;;11.73;7.40;;;17.30;65.10;;;13.28;92.56;95456.00;4951951;28;20030;-45
2022/08/23 01:58:53;;;;;;;13.52;7.60;;;17.30;64.40;;;13.28;92.55;95461.34;4919666;28;20037;-42
2022/08/23 02:01:25;;;;;;;8.52;7.05;;;17.30;64.30;;;13.27;92.39;95462.44;4952096;28;20393;-41
2022/08/23 02:03:51;;;;;;;11.30;7.65;;;17.30;64.60;;;13.25;92.70;95468.06;4963322;28;20069;-42
2022/08/23 02:06:17;;;;;;;9.23;6.82;;;17.30;64.30;;;13.22;92.81;95462.47;4953885;28;20516;-42
2022/08/23 02:11:41;;;;;;;9.93;7.32;;;17.30;64.50;;;13.21;92.36;95464.34;4970933;28;20515;-43
2022/08/23 02:14:17;;;;;;;12.15;7.80;;;17.30;64.60;;;13.17;92.51;95471.34;4969343;28;20030;-42
2022/08/23 02:16:55;;;;;;;11.75;8.35;;;17.30;64.60;;;13.11;94.03;95467.13;4971042;28;20026;-43
2022/08/23 02:19:21;;;;;;;9.48;7.18;;;17.30;64.90;;;13.10;93.74;95469.00;4969838;28;20047;-43
2022/08/23 02:21:47;;;;;;;12.88;8.45;;;17.20;64.50;;;13.08;93.41;95465.03;4969600;28;20480;-41
2022/08/23 02:24:44;;;;;;;10.55;8.23;;;17.20;64.60;;;13.03;93.34;95473.09;4970543;28;20022;-42
2022/08/23 02:27:14;;;;;;;10.68;8.05;;;17.20;65.10;;;12.95;93.22;95467.28;4956031;28;20037;-45
2022/08/23 02:29:45;;;;;;;11.50;8.25;;;17.10;64.80;;;12.90;93.57;95477.22;4971047;28;20109;-45
2022/08/23 02:32:15;;;;;;;12.88;8.55;;;17.00;64.90;;;12.83;93.89;95466.84;4969694;28;20037;-46
2022/08/23 02:34:44;;;;;;;11.32;8.45;;;17.00;65.10;;;12.78;94.30;95474.13;4969611;28;20081;-44
2022/08/23 02:37:13;;;;;;;10.18;8.80;;;16.90;65.00;;;12.73;94.54;95467.75;4953455;28;20080;-43
2022/08/23 02:39:41;;;;;;;12.23;8.45;;;16.90;65.30;;;12.69;94.83;95466.72;4969607;28;20044;-42
2022/08/23 02:42:09;;;;;;;11.70;8.13;;;16.80;65.40;;;12.67;95.19;95476.88;4953477;28;20141;-45
2022/08/23 02:44:38;;;;;;;10.75;8.32;;;16.80;65.60;;;12.65;95.13;95473.69;4970580;28;20026;-42
2022/08/23 02:47:08;;;;;;;10.60;7.95;;;16.80;65.80;;;12.63;95.09;95478.53;4970449;28;20037;-43
2022/08/23 02:49:37;;;;;;;12.45;8.00;;;16.80;65.80;;;12.58;95.25;95475.88;4953439;28;20029;-43
2022/08/23 02:52:06;;;;;;;11.90;8.55;;;16.70;65.80;;;12.56;95.10;95474.56;4970304;28;20034;-43
2022/08/23 02:54:38;;;;;;;13.38;7.97;;;16.70;65.90;;;12.52;95.48;95482.34;4972607;28;20030;-42
2022/08/23 02:57:08;;;;;;;12.43;8.60;;;16.70;66.10;;;12.50;95.93;95485.31;4989710;28;20448;-44
2022/08/23 02:59:37;;;;;;;9.60;7.85;;;16.60;66.00;;;12.49;95.80;95480.22;4957239;28;20030;-41
2022/08/23 03:02:03;;;;;;;12.13;8.30;;;16.60;66.20;;;12.49;96.29;95482.91;4941272;28;20121;-42
2022/08/23 03:04:29;;;;;;;10.07;8.00;;;16.50;66.20;;;12.49;96.26;95486.38;4972566;28;20133;-45
2022/08/23 03:07:07;;;;;;;11.32;7.60;;;16.60;66.40;;;12.48;96.20;95484.78;4974386;28;20037;-46
2022/08/23 03:09:34;;;;;;;9.23;7.35;;;16.60;66.70;;;12.49;96.13;95494.38;4974021;28;20022;-42
2022/08/23 03:12:06;;;;;;;14.73;7.78;;;16.50;66.40;;;12.48;96.25;95489.31;4972907;28;20053;-42
2022/08/23 03:14:36;;;;;;;11.80;8.40;;;16.60;66.50;;;12.45;96.05;95497.91;4972647;28;20041;-43
2022/08/23 03:17:15;;;;;;;12.05;8.95;;;16.50;66.40;;;12.44;95.51;95496.28;4974097;28;20026;-44
2022/08/23 03:19:40;;;;;;;11.38;9.13;;;16.60;66.50;;;12.41;95.47;95494.16;4974003;28;20030;-44
2022/08/23 03:22:06;;;;;;;13.93;8.73;;;16.50;66.40;;;12.35;96.26;95488.09;4989019;28;20030;-42
2022/08/23 03:24:36;;;;;;;11.32;8.35;;;16.50;66.40;;;12.35;96.32;95489.97;4972563;28;20037;-42
2022/08/23 03:27:05;;;;;;;12.35;8.23;;;16.50;66.70;;;12.33;96.84;95492.09;4972688;28;20054;-45
2022/08/23 03:29:32;;;;;;;12.40;9.10;;;16.40;66.70;;;12.30;96.61;95492.66;4974112;28;20429;-42
2022/08/23 03:32:00;;;;;;;13.73;9.10;;;16.40;66.70;;;12.31;96.45;95500.38;4988426;28;20407;-43
2022/08/23 03:34:26;;;;;;;16.83;9.52;;;16.40;66.80;;;12.29;96.13;95494.53;4972340;28;20034;-43
2022/08/23 03:36:52;;;;;;;12.25;9.05;;;16.40;66.80;;;12.26;96.52;95501.22;4943598;28;20033;-44
2022/08/23 03:39:21;;;;;;;12.75;9.60;;;16.40;66.90;;;12.26;96.12;95495.09;4952433;28;20054;-44
2022/08/23 03:41:48;;;;;;;13.07;8.82;;;16.40;67.00;;;12.21;95.86;95490.56;4962389;28;20026;-44
2022/08/23 03:44:14;;;;;;;13.68;8.75;;;16.40;66.90;;;12.19;96.65;95495.41;4955663;28;20037;-42
2022/08/23 03:46:41;;;;;;;12.15;8.88;;;16.30;66.90;;;12.18;97.27;95495.66;4956183;28;20038;-44
2022/08/23 03:49:13;;;;;;;12.30;9.20;;;16.30;67.00;;;12.19;97.28;95502.59;4972732;28;20030;-42
2022/08/23 03:51:42;;;;;;;15.52;10.02;;;16.30;67.20;;;12.15;97.37;95504.22;4988574;28;20080;-43
2022/08/23 03:54:08;;;;;;;12.68;9.65;;;16.30;67.00;;;12.13;96.90;95501.03;4955511;28;20030;-43
2022/08/23 03:56:59;;;;;;;15.25;9.65;;;16.20;67.00;;;12.10;97.18;95507.72;4972109;28;20040;-43
2022/08/23 03:59:28;;;;;;;15.88;9.80;;;16.20;67.40;;;12.08;96.79;95507.19;4971708;28;20030;-43
2022/08/23 04:01:54;;;;;;;11.85;10.45;;;16.20;67.20;;;12.06;97.17;95509.34;4973427;28;20030;-42
2022/08/23 04:04:21;;;;;;;13.68;10.73;;;16.20;67.30;;;12.06;97.25;95513.88;4972193;28;20091;-43
2022/08/23 04:06:47;;;;;;;15.73;10.23;;;16.10;67.40;;;12.04;97.00;95514.16;4958953;28;20021;-44
2022/08/23 04:09:17;;;;;;;13.10;9.70;;;16.10;67.50;;;12.01;97.52;95522.72;4975151;28;20053;-45
2022/08/23 04:11:50;;;;;;;15.88;10.27;;;16.10;67.50;;;12.00;97.71;95513.94;4990782;28;20401;-42
2022/08/23 04:14:17;;;;;;;16.95;9.50;;;16.10;67.90;;;12.00;97.50;95516.59;4975101;28;20068;-43
2022/08/23 04:16:46;;;;;;;11.93;9.68;;;16.10;67.70;;;12.00;97.42;95518.44;4958998;28;20124;-43
2022/08/23 04:19:14;;;;;;;16.08;10.05;;;16.10;67.90;;;11.97;97.55;95525.16;4991255;28;20029;-44
2022/08/23 04:21:51;;;;;;;12.98;10.18;;;16.10;67.90;;;11.95;97.93;95523.81;4992546;28;20029;-42
2022/08/23 04:24:18;;;;;;;12.48;10.05;;;16.10;68.10;;;11.96;97.83;95531.53;4990813;28;20018;-42
2022/08/23 04:26:44;;;;;;;13.95;10.20;;;16.10;67.90;;;11.96;97.56;95531.53;4974601;28;20032;-43
2022/08/23 04:29:13;;;;;;;14.63;9.70;;;16.10;67.90;;;11.98;97.35;95528.63;4992228;28;20026;-43
2022/08/23 04:31:46;;;;;;;13.13;9.43;;;16.10;67.90;;;11.96;97.83;95534.22;4992402;28;20034;-43
2022/08/23 04:34:18;;;;;;;13.68;9.75;;;16.10;68.10;;;11.98;97.49;95537.41;4973956;28;20018;-45
2022/08/23 04:36:43;;;;;;;12.33;10.13;;;16.10;68.00;;;11.96;97.07;95542.22;4980624;28;20389;-42
2022/08/23 04:39:13;;;;;;;14.80;9.52;;;16.10;67.80;;;11.94;97.20;95547.06;4972732;28;20033;-43
2022/08/23 04:44:23;;;;;;;14.10;10.20;;;16.10;67.90;;;11.98;98.08;95544.63;4976800;28;20210;-45
2022/08/23 04:46:49;;;;;;;12.10;9.65;;;16.10;68.00;;;12.02;98.00;95549.13;4991763;28;20543;-44
2022/08/23 04:49:20;;;;;;;16.60;9.75;;;16.20;68.10;;;12.04;97.51;95535.53;4974701;28;20389;-44
2022/08/23 04:51:46;;;;;;;13.95;9.63;;;16.20;68.20;;;12.04;97.53;95543.53;4974320;28;20121;-45
2022/08/23 04:54:13;;;;;;;12.10;10.15;;;16.20;68.10;;;12.06;98.09;95546.72;4984948;28;20100;-43
2022/08/23 04:56:38;;;;;;;12.35;9.23;;;16.20;68.10;;;12.10;97.71;95546.97;4982964;28;20064;-44
2022/08/23 04:59:05;;;;;;;11.93;8.90;;;16.30;68.20;;;12.13;97.86;95544.56;4971797;28;20022;-43
2022/08/23 05:01:32;;;;;;;13.02;9.30;;;16.30;68.20;;;12.19;97.77;95546.13;4986647;28;20052;-42
2022/08/23 05:03:59;;;;;;;12.45;8.95;;;16.30;68.20;;;12.34;97.70;95544.44;4955982;28;20049;-45
2022/08/23 05:06:34;;;;;;;11.23;8.77;;;16.40;68.30;;;12.55;97.33;95543.25;4966734;28;20017;-44
2022/08/23 05:09:03;;;;;;;11.65;8.25;;;16.50;68.40;;;12.75;96.17;95552.97;4987529;28;20030;-44
2022/08/23 05:11:32;;;;;;;12.30;7.88;;;16.60;68.20;;;12.95;95.26;95560.06;4987762;28;20029;-45
2022/08/23 05:14:02;;;;;;;10.43;7.97;;;16.70;68.10;;;13.15;93.76;95557.19;4966082;28;20029;-45
2022/08/23 05:16:28;;;;;;;10.32;7.20;;;16.90;68.10;;;13.35;92.64;95558.13;4957217;28;20050;-44
2022/08/23 05:18:54;;;;;;;9.50;7.45;;;17.00;67.90;;;13.55;91.83;95563.28;4960600;28;20145;-45
2022/08/23 05:21:24;;;;;;;12.68;7.63;;;17.20;67.70;;;13.76;90.51;95569.22;4974926;28;20051;-45
2022/08/23 05:23:50;;;;;;;13.55;7.60;;;17.40;67.60;;;14.01;91.07;95570.03;4979257;28;20476;-44
2022/08/23 05:26:17;;;;;;;11.70;7.10;;;17.50;67.20;;;14.24;90.32;95563.81;4949817;28;20034;-44
2022/08/23 05:28:49;;;;;;;7.35;6.32;;;17.70;67.00;;;14.49;89.34;95565.38;4983631;28;20473;-43
2022/08/23 05:31:22;;;;;;;8.32;6.43;;;18.00;66.70;;;14.73;88.00;95565.34;4987170;28;20033;-44
2022/08/23 05:33:49;;;;;;;8.02;6.35;;;18.20;66.30;;;14.98;86.95;95574.88;4969669;28;20032;-47
2022/08/23 05:36:22;;;;;;;7.45;6.35;;;18.50;66.00;;;15.24;84.72;95577.13;4985184;28;20030;-44
2022/08/23 05:38:51;;;;;;;8.25;5.57;;;18.70;65.50;;;15.48;84.92;95572.44;4986047;28;20233;-45
2022/08/23 05:41:18;;;;;;;8.73;5.90;;;19.00;65.10;;;15.73;82.49;95579.25;4956815;28;20037;-46
2022/08/23 05:43:46;;;;;;;8.80;5.82;;;19.30;64.60;;;16.03;82.39;95573.59;4974144;28;20248;-45
2022/08/23 05:46:20;;;;;;;7.45;5.43;;;19.60;64.20;;;16.33;80.75;95586.41;4934455;28;20435;-45
2022/08/23 05:48:49;;;;;;;6.70;5.32;;;19.90;63.50;;;16.63;78.01;95582.25;4982085;28;20117;-44
2022/08/23 05:51:26;;;;;;;6.18;5.03;;;20.20;63.00;;;16.93;76.12;95579.22;4956408;28;20038;-45
2022/08/23 05:54:06;;;;;;;10.60;5.05;;;20.50;62.40;;;17.24;75.37;95579.31;4985558;28;20116;-44
2022/08/23 05:56:41;;;;;;;8.10;4.65;;;20.90;61.70;;;17.55;73.67;95590.09;4981929;28;20026;-45
2022/08/23 05:59:14;;;;;;;5.63;5.03;;;21.20;60.90;;;17.71;71.74;95588.59;4973388;28;20030;-45
2022/08/23 06:01:41;;;;;;;10.10;4.93;;;21.60;60.10;;;17.94;70.71;95591.25;4966258;28;20033;-45
2022/08/23 06:04:14;;;;;;;5.40;4.90;;;21.80;59.50;;;18.10;69.86;95591.63;4972443;28;20034;-49
2022/08/23 06:06:47;;;;;;;;;;;22.10;58.80;;;18.26;68.56;95603.56;4960565;28;20434;-46
2022/08/23 06:09:17;;;;;;;6.30;5.28;;;22.30;58.80;;;18.47;67.73;95599.19;4969890;28;20429;-47
2022/08/23 06:11:48;;;;;;;9.50;4.75;;;22.60;57.90;;;18.61;66.73;95606.34;4971077;28;20060;-48
2022/08/23 06:14:15;;;;;;;8.45;4.57;;;22.80;57.30;;;18.65;65.82;95615.44;4989325;28;20388;-46
2022/08/23 06:16:46;;;;;;;8.73;5.05;;;23.00;56.80;;;18.76;65.40;95614.03;4989214;28;20558;-46
2022/08/23 06:19:19;;;;;;;10.13;4.90;;;23.20;56.10;;;18.99;64.75;95609.31;4969515;28;20065;-47
2022/08/23 06:21:50;;;;;;;;;;;23.30;55.50;;;19.24;63.93;95617.69;4979190;28;20380;-44
2022/08/23 06:24:16;;;;;;;5.43;4.75;;;23.50;55.90;;;19.52;64.07;95616.22;4989436;28;19913;-46
2022/08/23 06:26:44;;;;;;;6.20;4.95;;;23.80;55.20;;;19.81;62.81;95620.19;4972745;28;20416;-49
2022/08/23 06:29:16;;;;;;;4.72;4.32;;;24.00;54.70;;;20.05;61.53;95617.69;4976314;28;20048;-46
2022/08/23 06:31:47;;;;;;;5.78;4.72;;;24.20;54.10;;;20.29;60.65;95613.63;4986523;28;20121;-47
2022/08/23 06:34:35;;;;;;;6.18;5.25;;;24.50;53.70;;;20.57;60.34;95614.00;4980420;28;20022;-46
2022/08/23 06:37:14;;;;;;;6.82;4.75;;;24.80;53.20;;;20.88;58.55;95615.56;4967278;28;20044;-45
2022/08/23 06:39:41;;;;;;;6.93;4.57;;;25.10;52.50;;;21.10;58.37;95623.34;4974709;28;20038;-45
2022/08/23 06:42:15;;;;;;;8.82;4.95;;;25.30;52.00;;;21.39;57.98;95625.19;4949206;28;20659;-45
2022/08/23 06:44:41;;;;;;;5.65;4.88;;;25.60;51.40;;;21.62;57.17;95627.53;4981407;28;20029;-48
2022/08/23 06:47:08;;;;;;;6.47;4.35;;;25.90;51.10;;;21.85;56.77;95626.03;4960816;28;20029;-46
2022/08/23 06:49:35;;;;;;;7.30;4.95;;;26.10;50.60;;;21.97;56.25;95627.19;4963865;28;20022;-45
2022/08/23 06:52:03;;;;;;;6.10;4.38;;;26.40;50.60;;;22.17;54.94;95631.78;4992580;28;20431;-48
2022/08/23 06:54:36;;;;;;;5.60;4.93;;;26.70;49.50;;;22.36;54.04;95633.94;4976241;28;20025;-47
2022/08/23 06:57:11;;;;;;;4.80;4.40;;;27.00;48.80;;;22.43;53.77;95645.00;4974664;28;20050;-46
2022/08/23 06:59:37;;;;;;;6.65;4.68;;;27.20;48.10;;;22.59;53.77;95643.22;4957098;28;20034;-48
2022/08/23 07:02:16;;;;;;;6.65;4.50;;;27.40;47.70;;;22.82;53.22;95640.03;4969458;28;20026;-46
2022/08/23 07:04:42;;;;;;;4.82;4.20;;;27.60;47.20;;;23.05;52.14;95640.34;4974499;28;20034;-45
2022/08/23 07:07:11;;;;;;;9.10;4.60;;;27.90;46.90;;;23.29;51.32;95644.94;4974580;28;20037;-48
2022/08/23 07:09:37;;;;;;;7.00;4.60;;;28.10;46.20;;;23.42;50.00;95646.47;4979551;28;20037;-47
2022/08/23 07:12:11;;;;;;;5.15;4.65;;;28.30;45.90;;;23.46;50.17;95649.28;4974229;28;20042;-48
2022/08/23 07:14:38;;;;;;;7.25;4.90;;;28.50;45.10;;;23.60;49.57;95654.31;4957463;28;20022;-48
2022/08/23 07:17:04;;;;;;;5.47;4.90;;;28.60;44.60;;;23.72;49.53;95654.31;4956572;28;20116;-49
2022/08/23 07:19:35;;;;;;;6.65;4.95;;;28.80;44.20;;;23.84;49.48;95656.97;4973941;28;20030;-46
2022/08/23 07:22:04;;;;;;;7.72;4.70;;;29.00;43.60;;;24.07;49.32;95659.09;4963094;28;20103;-50
2022/08/23 07:24:41;;;;;;;5.32;4.82;;;29.20;43.50;;;24.21;47.58;95656.75;4971179;28;20022;-46
2022/08/23 07:27:08;;;;;;;5.35;4.85;;;29.40;42.90;;;24.26;48.02;95655.72;4981516;28;20021;-46
2022/08/23 07:29:38;;;;;;;5.90;4.47;;;29.60;42.50;;;24.55;47.65;95658.03;4973011;28;20481;-46
2022/08/23 07:32:05;;;;;;;5.65;5.03;;;29.80;42.10;;;24.68;46.96;95656.00;4974455;28;20104;-48
2022/08/23 07:34:32;;;;;;;7.82;4.68;;;30.10;41.70;;;24.85;45.88;95663.81;4991716;28;20030;-47
2022/08/23 07:36:58;;;;;;;5.57;4.72;;;30.30;41.10;;;24.98;45.46;95661.75;4993298;28;20034;-45
2022/08/23 07:39:25;;;;;;;5.07;4.57;;;30.40;40.50;;;25.11;45.14;95668.66;4974981;28;20048;-47
2022/08/23 07:41:51;;;;;;;5.43;4.28;;;30.50;40.10;;;25.33;45.09;95661.75;4993206;28;20108;-48
2022/08/23 07:44:17;;;;;;;5.50;4.35;;;30.80;39.90;;;25.51;44.19;95658.59;4992755;28;20105;-47
2022/08/23 07:46:45;;;;;;;7.00;4.20;;;30.90;39.50;;;25.77;43.89;95653.28;4991967;28;20037;-45
2022/08/23 07:49:17;;;;;;;6.85;4.72;;;31.20;39.10;;;25.89;43.64;95662.50;4975105;28;20079;-49
2022/08/23 07:51:50;;;;;;;5.30;4.38;;;31.40;38.80;;;26.02;43.10;95667.44;4975848;28;20112;-46
2022/08/23 07:54:21;;;;;;;6.45;5.05;;;31.60;38.20;;;25.86;43.71;95665.97;4992819;28;20039;-45
2022/08/23 07:57:04;;;;;;;6.93;4.60;;;31.80;37.80;;;26.10;42.24;95664.81;4975739;28;20377;-46
2022/08/23 07:59:30;;;;;;;5.45;4.30;;;32.00;37.50;;;26.34;42.70;95675.41;4992380;28;20476;-46
2022/08/23 08:01:56;;;;;;;5.45;4.93;;;32.20;37.30;;;26.29;43.07;95671.03;4991086;28;20034;-46
2022/08/23 08:04:22;;;;;;;6.93;4.80;;;32.30;36.90;;;26.40;42.70;95668.47;4982233;28;20085;-46
2022/08/23 08:06:50;;;;;;;4.60;4.20;;;32.40;36.50;;;26.38;42.39;95680.91;4955760;28;20026;-49
2022/08/23 08:09:19;;;;;;;6.07;4.30;;;32.50;36.10;;;26.65;42.04;95681.78;4982255;28;20030;-46
2022/08/23 08:11:47;;;;;;;5.45;4.95;;;32.60;35.80;;;26.69;41.56;95669.75;4925191;28;20084;-46
2022/08/23 08:14:35;;;;;;;6.97;5.07;;;32.70;35.50;;;26.83;40.66;95680.13;4955529;28;20045;-48
2022/08/23 08:17:05;;;;;;;6.22;4.25;;;32.90;35.50;;;27.08;39.14;95687.94;4973222;28;20030;-46
2022/08/23 08:19:37;;;;;;;5.43;4.78;;;33.00;34.70;;;27.22;38.72;95685.41;4972590;28;20022;-46
2022/08/23 08:22:11;;;;;;;6.05;4.60;;;33.10;34.20;;;27.34;38.86;95679.72;4971721;28;20030;-46
2022/08/23 08:24:39;;;;;;;5.43;4.80;;;33.20;34.00;;;27.32;39.09;95687.50;4982510;28;20037;-45
2022/08/23 08:27:05;;;;;;;6.53;4.85;;;33.30;33.80;;;27.56;38.76;95690.94;4960987;28;20393;-46
2022/08/23 08:29:34;;;;;;;5.75;4.72;;;33.40;33.70;;;27.73;38.62;95689.56;4955036;28;20041;-46
2022/08/23 08:32:07;;;;;;;7.80;4.85;;;33.60;33.40;;;27.95;39.51;95690.63;4983655;28;20038;-47
2022/08/23 08:34:37;;;;;;;6.88;4.90;;;33.70;33.40;;;28.03;38.07;95693.09;4950415;28;20022;-46
2022/08/23 08:37:03;;;;;;;5.15;4.65;;;33.90;33.00;;;28.30;38.13;95695.72;4972862;28;20033;-46
2022/08/23 08:39:32;;;;;;;4.97;4.47;;;34.10;32.90;;;28.36;38.28;95700.47;4961204;28;20017;-47
2022/08/23 08:42:50;;;;;;;7.68;4.60;;;34.20;32.60;;;28.19;36.55;95698.34;4985456;28;20048;-46
2022/08/23 08:45:38;;;;;;;5.20;4.35;;;34.40;32.20;;;28.26;36.84;95701.13;4972524;28;20033;-47
2022/08/23 08:48:14;;;;;;;5.80;4.57;;;34.50;31.60;;;28.16;36.89;95699.09;4956219;28;20076;-46
2022/08/23 08:51:05;;;;;;;8.30;5.07;;;34.60;31.40;;;28.18;38.18;95701.47;4970028;28;20030;-50
2022/08/23 08:53:44;;;;;;;5.78;5.18;;;34.60;31.30;;;28.07;37.61;95699.38;4963606;28;20034;-46
2022/08/23 08:56:38;;;;;;;5.57;4.95;;;34.70;31.10;;;28.24;37.48;95702.69;4959899;28;20022;-46
2022/08/23 08:59:22;;;;;;;5.60;4.93;;;34.80;31.30;;;28.32;37.56;95702.38;4974293;28;20129;-46
2022/08/23 09:01:50;;;;;;;5.35;4.40;;;34.90;31.00;;;28.51;37.69;95700.63;4970752;28;20029;-48
2022/08/23 09:04:17;;;;;;;5.80;3.97;;;35.00;30.80;;;28.39;36.81;95698.91;4970340;28;20503;-45
2022/08/23 09:07:23;;;;;;;6.30;5.22;;;35.00;30.50;;;28.68;37.26;95710.97;4963409;28;20489;-46
2022/08/23 09:10:35;;;;;;;4.70;4.30;;;35.10;30.60;;;29.23;36.11;95702.00;4965938;28;20050;-46
2022/08/23 09:13:58;;;;;;;6.90;4.82;;;35.30;30.60;;;29.43;35.37;95705.25;4963212;28;20212;-47
2022/08/23 09:17:04;;;;;;;10.13;4.43;;;35.50;30.50;;;29.47;34.10;95695.88;4981694;28;20030;-48
2022/08/23 09:19:38;;;;;;;4.75;4.20;;;35.60;29.90;;;29.61;35.47;95697.91;4920584;29;20045;-46
2022/08/23 09:22:27;;;;;;;5.50;4.75;;;35.80;29.90;;;29.56;35.66;95700.22;4915096;29;20034;-46
2022/08/23 09:24:57;;;;;;;8.95;4.28;;;36.00;29.80;;;29.79;36.77;95695.25;4916241;29;20406;-46
2022/08/23 09:27:35;;;;;;;6.45;4.50;;;36.10;29.90;;;29.92;34.67;95699.22;4915215;29;20031;-48
2022/08/23 09:30:03;;;;;;;4.88;4.03;;;36.20;29.50;;;30.33;33.17;95695.44;4914922;29;20080;-47
2022/08/23 09:32:42;;;;;;;5.03;4.32;;;36.30;29.30;;;30.13;33.36;95700.47;4930818;29;20039;-46
2022/08/23 09:35:28;;;;;;;4.10;3.70;;;36.50;28.90;;;29.55;33.13;95704.91;4931238;29;20126;-46
2022/08/23 09:38:28;;;;;;;4.88;3.60;;;36.60;28.70;;;28.67;35.38;95701.16;4930001;29;20055;-47
2022/08/23 09:40:54;;;;;;;6.40;3.90;;;36.50;28.40;;;28.97;34.99;95690.03;4938917;28;20066;-48
2022/08/23 09:43:27;;;;;;;4.10;3.70;;;36.40;28.30;;;29.16;35.18;95696.47;4930605;29;20047;-46
2022/08/23 09:46:01;;;;;;;4.38;3.97;;;36.50;28.40;;;28.94;34.88;95690.81;4927704;29;20474;-47
2022/08/23 09:48:45;;;;;;;4.57;3.90;;;36.40;28.20;;;27.83;36.50;95687.00;4925582;29;20529;-48
2022/08/23 09:51:34;;;;;;;5.72;3.63;;;36.40;28.10;;;28.35;36.28;95689.88;4980384;28;20411;-48
2022/08/23 09:54:23;;;;;;;8.32;4.05;;;36.20;28.20;;;28.51;36.38;95692.41;4973658;28;20491;-49
2022/08/23 09:57:10;;;;;;;4.60;3.75;;;36.20;28.20;;;29.09;32.73;95690.94;4989533;28;20546;-46
2022/08/23 09:59:50;;;;;;;4.35;3.50;;;36.30;27.90;;;29.82;32.02;95682.72;4972929;28;20045;-48
2022/08/23 10:02:33;;;;;;;4.60;3.70;;;36.50;28.00;;;29.90;31.00;95689.81;4989808;28;20026;-46
2022/08/23 10:05:14;;;;;;;3.70;3.40;;;36.70;27.60;;;30.16;30.80;95675.75;4954934;28;20377;-46
2022/08/23 10:08:00;;;;;;;7.95;3.80;;;36.80;27.30;;;30.10;31.69;95674.56;4972563;28;20116;-46
2022/08/23 10:10:51;;;;;;;4.38;3.13;;;37.00;27.00;;;30.11;29.89;95670.63;4976831;28;20033;-46
2022/08/23 10:13:19;;;;;;;3.20;2.90;;;37.00;26.30;;;30.50;28.57;95680.16;4937881;28;20022;-46
2022/08/23 10:16:15;;;;;;;3.58;3.17;;;37.20;26.00;;;30.89;28.84;95675.47;4971051;28;20075;-46
2022/08/23 10:19:14;;;;;;;3.00;2.30;;;37.40;25.90;;;30.09;22.99;95666.72;4985315;28;20100;-48
2022/08/23 10:22:27;;;;;;;2.47;2.28;;;37.60;24.40;;;29.81;25.72;95672.91;4976861;28;20112;-46
2022/08/23 10:25:29;;;;;;;3.35;2.80;;;37.50;23.30;;;29.80;26.77;95668.59;4949665;28;20121;-46
2022/08/23 10:31:19;;;;;;;2.92;2.53;;;37.40;23.50;;;29.82;24.91;95671.75;4990039;28;20113;-46
2022/08/23 10:34:37;;;;;;;2.55;2.35;;;37.40;23.20;;;30.26;25.91;95662.47;4984296;28;20057;-46
2022/08/23 10:37:55;;;;;;;4.50;2.65;;;37.40;23.40;;;30.23;26.86;95671.47;4972793;28;20037;-46
2022/08/23 10:40:40;;;;;;;5.35;2.65;;;37.50;23.50;;;30.42;23.61;95674.63;4971215;28;20237;-46
2022/08/23 10:43:44;;;;;;;2.47;2.20;;;37.60;23.30;;;30.80;22.81;95666.03;4970916;28;20477;-46
2022/08/23 10:46:11;;;;;;;2.50;2.30;;;37.70;22.50;;;30.84;22.45;95672.34;4953580;28;20037;-47
2022/08/23 10:48:57;;;;;;;3.58;2.60;;;37.90;22.20;;;30.57;23.95;95666.41;4954198;28;20125;-46
2022/08/23 10:51:34;;;;;;;4.47;2.72;;;37.90;21.90;;;30.95;24.76;95661.31;4953938;28;20034;-47
2022/08/23 10:54:45;;;;;;;3.00;2.70;;;38.00;22.00;;;31.15;25.48;95661.66;4947010;28;20033;-47
2022/08/23 10:57:20;;;;;;;3.20;2.90;;;38.20;22.50;;;30.28;26.56;95663.66;4970277;28;20165;-48
2022/08/23 10:59:50;;;;;;;2.90;2.58;;;38.20;22.40;;;30.23;24.52;95657.75;4953677;28;20019;-47